Accueil
METAR-TAF:

METAR-TAF

Aéroports :

Monroe, Caroline du Nord, États-Unis

latitude: 35-01-01N, longitude: 080-37-14W, altitude: 207 m

Observation

Le bulletin a été fait il y a 24 minutes, à 23:53 UTC
Vent 6 kt de sud/sud-ouest
Température 13°C
Humidité 54%
Pression 1017 hPa
Visibilité: 16.1 km
Ciel clair

METAR: KEQY 112353Z AUTO 21006KT 10SM CLR 13/04 A3002 RMK AO2 SLP178 T01330039 10200 20133 55003

Heure: 19:17 (00:17 UTC)


TAF: absent

Observations et prévisions météorologiques de plus de 4000 aéroports (messages METAR et TAF).

Les stations disponibles sont représentées par des disques jaunes et rouges sur la carte.

Passer la souris dessus pour voir le nom de la station.

Cliquer dessus pour voir les observations et prévisions météorologiques.

Pour changer de carte: cliquez sur les boutons verts avec une croix noire pour zoomer, sur le bouton vert avec un tiret pour effectuer un zoom arrière, ou sur les flèches vertes pour les cartes adjacentes.


METAR-TAF: